createdAt,value
2023-03-29T00:03:27.731Z,1.10
2023-03-29T00:07:34.089Z,1.40
2023-03-29T00:11:39.460Z,1.30
2023-03-29T00:15:44.684Z,1.40
2023-03-29T00:19:50.103Z,1.10
2023-03-29T00:23:55.464Z,1.80
2023-03-29T00:28:00.785Z,0.70
2023-03-29T00:32:06.508Z,1.00
2023-03-29T00:36:13.636Z,1.50
2023-03-29T00:40:18.962Z,1.10
2023-03-29T00:44:41.339Z,1.20
2023-03-29T00:48:46.697Z,1.00
2023-03-29T00:52:55.487Z,1.40
2023-03-29T00:57:04.073Z,0.70
2023-03-29T01:01:13.825Z,1.40
2023-03-29T01:05:21.036Z,1.10
2023-03-29T01:09:29.969Z,1.80
2023-03-29T01:13:39.469Z,1.50
2023-03-29T01:17:50.354Z,1.80
2023-03-29T01:21:57.942Z,0.90
2023-03-29T01:26:05.668Z,1.50
2023-03-29T01:30:14.268Z,1.30
2023-03-29T01:34:22.041Z,0.90
2023-03-29T01:38:29.062Z,1.40
2023-03-29T01:42:43.723Z,1.20
2023-03-29T01:46:51.532Z,1.20
2023-03-29T01:51:00.192Z,1.50
2023-03-29T01:55:08.221Z,1.40
2023-03-29T01:59:15.342Z,1.00
2023-03-29T02:03:21.954Z,1.20
2023-03-29T02:11:30.856Z,1.90
2023-03-29T02:15:36.116Z,1.30
2023-03-29T02:19:41.765Z,1.30
2023-03-29T02:23:49.208Z,1.60
2023-03-29T02:27:55.066Z,1.70
2023-03-29T02:32:07.684Z,1.60
2023-03-29T02:36:14.765Z,1.50
2023-03-29T02:40:20.997Z,2.20
2023-03-29T02:44:28.232Z,1.50
2023-03-29T02:48:34.875Z,1.60
2023-03-29T02:52:42.750Z,2.00
2023-03-29T02:56:49.367Z,1.10
2023-03-29T03:00:55.330Z,1.80
2023-03-29T03:05:00.584Z,1.70
2023-03-29T03:09:06.018Z,1.70
2023-03-29T03:13:11.407Z,1.70
2023-03-29T03:17:18.862Z,1.70
2023-03-29T03:21:24.613Z,1.60
2023-03-29T03:25:30.086Z,1.80
2023-03-29T03:29:38.638Z,2.50
2023-03-29T03:33:44.035Z,2.10
2023-03-29T03:37:49.557Z,2.00
2023-03-29T03:41:54.943Z,1.50
2023-03-29T03:46:00.426Z,1.80
2023-03-29T03:50:06.335Z,1.50
2023-03-29T03:54:11.620Z,1.70
2023-03-29T03:58:17.316Z,1.10
2023-03-29T04:02:23.095Z,1.70
2023-03-29T04:06:30.949Z,1.30
2023-03-29T04:10:36.893Z,1.70
2023-03-29T04:14:42.145Z,1.40
2023-03-29T04:18:47.641Z,1.90
2023-03-29T04:22:53.206Z,1.50
2023-03-29T04:26:58.553Z,2.60
2023-03-29T04:31:04.282Z,2.20
2023-03-29T04:35:10.348Z,2.20
2023-03-29T04:39:15.743Z,2.10
2023-03-29T04:43:22.720Z,2.30
2023-03-29T04:47:31.311Z,2.30
2023-03-29T04:51:36.594Z,2.20
2023-03-29T04:55:41.843Z,1.80
2023-03-29T04:59:47.118Z,2.60
2023-03-29T05:03:52.624Z,2.20
2023-03-29T05:07:58.240Z,1.80
2023-03-29T05:12:03.468Z,2.20
2023-03-29T05:16:11.312Z,2.70
2023-03-29T05:20:17.688Z,2.20
2023-03-29T05:24:22.957Z,2.00
2023-03-29T05:28:28.535Z,2.50
2023-03-29T05:32:33.798Z,1.90
2023-03-29T05:36:39.503Z,1.50
2023-03-29T05:40:44.886Z,2.20
2023-03-29T05:44:51.099Z,1.40
2023-03-29T05:48:57.997Z,1.80
2023-03-29T05:53:03.778Z,2.10
2023-03-29T05:57:09.111Z,2.00
2023-03-29T06:01:14.823Z,1.80
2023-03-29T06:05:21.076Z,2.30
2023-03-29T06:09:26.765Z,1.70
2023-03-29T06:13:33.539Z,2.10
2023-03-29T06:17:40.029Z,1.80
2023-03-29T06:25:51.377Z,1.70
2023-03-29T06:29:56.878Z,1.80
2023-03-29T06:34:02.729Z,2.00
2023-03-29T06:38:08.225Z,1.90
2023-03-29T06:42:21.242Z,1.50
2023-03-29T06:46:27.217Z,2.60
2023-03-29T06:50:32.759Z,2.30
2023-03-29T06:54:38.935Z,2.10
2023-03-29T06:58:45.053Z,1.50
2023-03-29T07:02:50.628Z,2.40
2023-03-29T07:07:01.798Z,2.90
2023-03-29T07:11:07.431Z,2.30
2023-03-29T07:15:13.361Z,2.40
2023-03-29T07:19:19.833Z,2.10
2023-03-29T07:23:25.124Z,1.80
2023-03-29T07:27:30.362Z,2.00
2023-03-29T07:31:35.990Z,2.40
2023-03-29T07:35:43.681Z,1.90
2023-03-29T07:39:48.965Z,2.20
2023-03-29T07:43:54.368Z,2.20
2023-03-29T07:48:00.704Z,2.00
2023-03-29T07:52:06.334Z,1.40
2023-03-29T07:56:11.733Z,1.00
2023-03-29T08:00:19.708Z,2.10
2023-03-29T08:04:25.264Z,1.40
2023-03-29T08:08:30.671Z,1.50
2023-03-29T08:12:36.337Z,1.70
2023-03-29T08:16:41.984Z,1.60
2023-03-29T08:20:47.220Z,1.40
2023-03-29T08:24:53.020Z,1.80
2023-03-29T08:28:58.263Z,1.60
2023-03-29T08:33:03.527Z,1.40
2023-03-29T08:37:09.896Z,1.70
2023-03-29T08:41:22.136Z,1.20
2023-03-29T08:45:31.993Z,0.50
2023-03-29T08:49:38.642Z,1.30
2023-03-29T08:53:45.620Z,1.20
2023-03-29T08:57:51.704Z,0.60
2023-03-29T09:06:03.900Z,0.30
2023-03-29T09:10:13.568Z,0.80
2023-03-29T09:14:30.242Z,0.90
2023-03-29T09:18:40.699Z,1.10
2023-03-29T09:22:52.809Z,1.10
2023-03-29T09:27:01.855Z,1.20
2023-03-29T09:31:10.373Z,1.40
2023-03-29T09:35:19.273Z,0.90
2023-03-29T09:39:24.921Z,1.30
2023-03-29T09:43:33.116Z,0.70
2023-03-29T09:47:39.941Z,1.60
2023-03-29T09:51:46.159Z,0.90
2023-03-29T09:55:52.217Z,1.20
2023-03-29T09:59:57.538Z,1.00
2023-03-29T10:04:02.767Z,2.40
2023-03-29T10:08:17.652Z,1.20
2023-03-29T10:12:24.260Z,1.00
2023-03-29T10:16:34.861Z,1.10
2023-03-29T10:20:41.882Z,1.20
2023-03-29T10:24:51.419Z,0.90
2023-03-29T10:29:00.388Z,1.00
2023-03-29T10:33:07.529Z,0.90
2023-03-29T10:37:14.711Z,1.60
2023-03-29T10:41:21.797Z,1.00
2023-03-29T10:45:28.534Z,1.20
2023-03-29T10:49:40.894Z,0.80
2023-03-29T10:53:46.702Z,1.10
2023-03-29T11:02:04.207Z,0.80
2023-03-29T11:06:14.268Z,1.30
2023-03-29T11:10:28.475Z,1.10
2023-03-29T11:14:38.471Z,1.30
2023-03-29T11:19:01.435Z,1.40
2023-03-29T11:23:11.120Z,1.10
2023-03-29T11:27:20.896Z,1.40
2023-03-29T11:31:30.796Z,1.20
2023-03-29T11:35:41.847Z,1.10
2023-03-29T11:39:50.484Z,1.20
2023-03-29T11:43:57.784Z,1.10
2023-03-29T11:48:05.562Z,1.10
2023-03-29T11:52:13.810Z,0.90
2023-03-29T11:56:24.009Z,1.50
2023-03-29T12:00:31.782Z,1.50
2023-03-29T12:04:40.133Z,1.70
2023-03-29T12:08:47.064Z,1.50
2023-03-29T12:12:56.498Z,1.60
2023-03-29T12:17:03.465Z,1.40
2023-03-29T12:21:14.218Z,1.50
2023-03-29T12:25:22.808Z,1.40
2023-03-29T12:29:38.336Z,1.10
2023-03-29T12:33:55.833Z,1.30
2023-03-29T12:38:07.288Z,1.40
2023-03-29T12:42:16.498Z,1.40
2023-03-29T12:46:24.218Z,1.60
2023-03-29T12:50:34.011Z,1.50
2023-03-29T12:54:39.236Z,1.60
2023-03-29T12:59:07.696Z,2.00
2023-03-29T13:03:29.506Z,1.70
2023-03-29T13:07:46.478Z,1.70
2023-03-29T13:11:54.617Z,1.50
2023-03-29T13:16:09.690Z,2.00
2023-03-29T13:20:33.896Z,1.70
2023-03-29T13:24:45.040Z,1.80
2023-03-29T13:28:58.887Z,1.20
2023-03-29T13:33:12.188Z,1.90
2023-03-29T13:37:25.515Z,1.50
2023-03-29T13:41:33.555Z,1.90
2023-03-29T13:45:40.578Z,1.60
2023-03-29T13:49:51.551Z,1.70
2023-03-29T13:54:22.819Z,1.50
2023-03-29T13:58:40.776Z,1.60
2023-03-29T14:06:57.938Z,1.40
2023-03-29T14:11:03.821Z,1.40
2023-03-29T14:15:32.396Z,1.70
2023-03-29T14:24:03.099Z,1.70
2023-03-29T14:28:19.729Z,1.40
2023-03-29T14:32:32.641Z,1.00
2023-03-29T14:36:39.987Z,1.10
2023-03-29T14:45:09.394Z,1.50
2023-03-29T14:49:16.501Z,1.30
2023-03-29T14:53:26.179Z,1.30
2023-03-29T14:57:35.401Z,1.40
2023-03-29T15:01:44.725Z,1.20
2023-03-29T15:05:52.062Z,1.10
2023-03-29T15:09:58.686Z,1.50
2023-03-29T15:14:05.167Z,1.50
2023-03-29T15:18:19.697Z,1.50
2023-03-29T15:22:25.014Z,1.90
2023-03-29T15:26:44.226Z,1.30
2023-03-29T15:35:22.249Z,1.60
2023-03-29T15:43:44.217Z,1.80
2023-03-29T15:47:49.947Z,1.80
2023-03-29T15:52:18.491Z,2.00
2023-03-29T15:56:48.090Z,1.60
2023-03-29T16:01:11.488Z,1.80
2023-03-29T16:05:30.402Z,2.10
2023-03-29T16:09:36.356Z,1.80
2023-03-29T16:13:41.865Z,2.00
2023-03-29T16:18:10.808Z,1.90
2023-03-29T16:22:42.174Z,3.00
2023-03-29T16:27:11.818Z,3.50
2023-03-29T16:31:17.252Z,2.90
2023-03-29T16:35:46.755Z,2.80
2023-03-29T16:44:07.765Z,2.20
2023-03-29T16:48:14.260Z,2.90
2023-03-29T16:52:19.580Z,2.40
2023-03-29T16:56:24.805Z,2.30
2023-03-29T17:00:30.811Z,2.80
2023-03-29T17:04:36.219Z,2.70
2023-03-29T17:08:42.558Z,2.20
2023-03-29T17:12:47.788Z,2.20
2023-03-29T17:16:53.305Z,2.40
2023-03-29T17:25:03.792Z,3.40
2023-03-29T17:29:09.034Z,3.20
2023-03-29T17:33:14.727Z,3.50
2023-03-29T17:37:20.381Z,3.60
2023-03-29T17:45:29.284Z,7.20
2023-03-29T17:49:34.525Z,9.70
2023-03-29T17:53:39.874Z,7.30
2023-03-29T17:57:45.271Z,7.90
2023-03-29T18:01:50.592Z,6.40
2023-03-29T18:05:56.649Z,7.10
2023-03-29T18:10:02.125Z,6.40
2023-03-29T18:14:07.567Z,6.30
2023-03-29T18:18:12.859Z,6.50
2023-03-29T18:22:18.720Z,5.30
2023-03-29T18:26:24.265Z,4.00
2023-03-29T18:30:29.552Z,3.70
2023-03-29T18:34:34.786Z,3.20
2023-03-29T18:38:40.744Z,3.40
2023-03-29T18:42:46.076Z,3.30
2023-03-29T18:46:51.357Z,3.50
2023-03-29T18:50:58.290Z,3.70
2023-03-29T18:55:03.492Z,2.70
2023-03-29T18:59:08.969Z,3.10
2023-03-29T19:03:14.347Z,3.60
2023-03-29T19:07:20.656Z,3.50
2023-03-29T19:11:27.699Z,3.80
2023-03-29T19:15:34.805Z,4.20
2023-03-29T19:19:40.377Z,4.80
2023-03-29T19:23:46.176Z,3.80
2023-03-29T19:27:51.537Z,4.60
2023-03-29T19:31:57.358Z,4.00
2023-03-29T19:36:02.864Z,4.20
2023-03-29T19:40:10.970Z,4.00
2023-03-29T19:44:16.159Z,4.70
2023-03-29T19:48:23.576Z,4.50
2023-03-29T19:52:30.366Z,4.20
2023-03-29T19:56:35.839Z,4.60
2023-03-29T20:00:41.935Z,4.20
2023-03-29T20:04:47.461Z,4.50
2023-03-29T20:08:52.956Z,4.20
2023-03-29T20:12:58.223Z,3.70
2023-03-29T20:17:04.543Z,4.70
2023-03-29T20:21:10.565Z,4.20
2023-03-29T20:25:15.858Z,4.10
2023-03-29T20:29:21.376Z,4.50
2023-03-29T20:33:26.627Z,4.40
2023-03-29T20:37:31.917Z,5.10
2023-03-29T20:41:38.426Z,4.80
2023-03-29T20:45:52.688Z,4.30
2023-03-29T20:49:59.043Z,4.30
2023-03-29T20:54:05.690Z,7.20
2023-03-29T20:58:11.009Z,6.90
2023-03-29T21:02:18.974Z,6.50
2023-03-29T21:06:24.405Z,7.10
2023-03-29T21:10:29.732Z,6.70
2023-03-29T21:14:34.949Z,6.50
2023-03-29T21:18:40.914Z,6.40
2023-03-29T21:22:46.168Z,6.20
2023-03-29T21:26:51.496Z,5.90
2023-03-29T21:30:57.434Z,6.20
2023-03-29T21:35:02.766Z,6.20
2023-03-29T21:39:08.220Z,5.40
2023-03-29T21:43:13.423Z,6.30
2023-03-29T21:47:18.823Z,6.40
2023-03-29T21:51:24.061Z,6.10
2023-03-29T21:55:29.249Z,5.40
2023-03-29T21:59:34.525Z,5.90
2023-03-29T22:03:39.971Z,5.70
2023-03-29T22:07:45.334Z,5.90
2023-03-29T22:11:51.921Z,5.70
2023-03-29T22:15:59.166Z,5.20
2023-03-29T22:20:13.963Z,5.40
2023-03-29T22:24:19.336Z,5.20
2023-03-29T22:28:24.900Z,5.40
2023-03-29T22:32:31.541Z,5.40
2023-03-29T22:36:36.972Z,5.20
2023-03-29T22:40:42.463Z,5.40
2023-03-29T22:44:47.968Z,4.30
2023-03-29T22:48:53.421Z,5.20
2023-03-29T22:52:58.675Z,4.30
2023-03-29T22:57:04.060Z,4.80
2023-03-29T23:01:09.632Z,5.10
2023-03-29T23:05:15.009Z,5.00
2023-03-29T23:09:20.202Z,4.90
2023-03-29T23:13:26.431Z,4.70
2023-03-29T23:17:32.746Z,4.70
2023-03-29T23:21:37.940Z,4.80
2023-03-29T23:25:43.445Z,4.50
2023-03-29T23:29:48.646Z,4.70
2023-03-29T23:33:54.183Z,4.70
2023-03-29T23:37:59.881Z,4.70
2023-03-29T23:42:05.224Z,4.30
2023-03-29T23:46:11.589Z,4.40
2023-03-29T23:50:16.906Z,4.70
2023-03-29T23:54:22.528Z,5.00
2023-03-29T23:58:27.823Z,4.60
